Burghersdorp Airport


Codes: FABD/
Name: Burghersdorp Airport
City: Burgersdorp
Country: South Africa
Elevation: 4734 ft.

Photos at Burghersdorp Airport


   Photos courtesy of SpottingLog. You can add your own sightings and photos by signing up for a free trial today.



No photos found.

Weather at Burghersdorp Airport


Time (UTC)DescriptionTempratureWindCloud coverageVisibilityPressureHumidity
19-Apr-2024 03:00Clear Sky13°C2 mph, NW3%10000m1023hPa76%
19-Apr-2024 06:00Few Clouds14°C2 mph, NE11%10000m1023hPa71%
19-Apr-2024 09:00Few Clouds19°C7 mph, NW20%10000m1022hPa55%
19-Apr-2024 12:00Broken Clouds23°C7 mph, W64%10000m1019hPa37%
19-Apr-2024 15:00Clear Sky23°C7 mph, NW6%10000m1018hPa39%
19-Apr-2024 18:00Scattered Clouds18°C7 mph, NW35%10000m1020hPa51%
19-Apr-2024 21:00Clear Sky17°C4 mph, NW2%10000m1020hPa57%
20-Apr-2024 00:00Clear Sky15°C4 mph, NW1%10000m1019hPa62%
20-Apr-2024 03:00Clear Sky14°C4 mph, N0%10000m1019hPa66%
20-Apr-2024 06:00Clear Sky17°C4 mph, N2%10000m1019hPa55%
20-Apr-2024 09:00Clear Sky23°C11 mph, NW0%10000m1017hPa36%
20-Apr-2024 12:00Clear Sky26°C16 mph, W3%10000m1014hPa29%
20-Apr-2024 15:00Broken Clouds25°C16 mph, W55%10000m1013hPa34%
20-Apr-2024 18:00Broken Clouds20°C7 mph, NW75%10000m1015hPa44%
20-Apr-2024 21:00Overcast Clouds19°C4 mph, NW92%10000m1015hPa48%
21-Apr-2024 00:00Overcast Clouds17°C2 mph, NW93%10000m1015hPa53%
21-Apr-2024 03:00Overcast Clouds16°C4 mph, N97%10000m1015hPa55%
21-Apr-2024 06:00Broken Clouds18°C4 mph, NE72%10000m1016hPa49%
21-Apr-2024 09:00Broken Clouds25°C11 mph, NW55%10000m1014hPa32%
21-Apr-2024 12:00Scattered Clouds27°C18 mph, W46%10000m1011hPa19%
21-Apr-2024 15:00Scattered Clouds26°C16 mph, W43%10000m1011hPa23%
21-Apr-2024 18:00Scattered Clouds20°C7 mph, W50%10000m1014hPa32%
21-Apr-2024 21:00Overcast Clouds19°C2 mph, NW100%10000m1014hPa35%
22-Apr-2024 00:00Overcast Clouds19°C4 mph, N100%10000m1014hPa37%
22-Apr-2024 03:00Overcast Clouds18°C7 mph, SE100%10000m1014hPa36%
22-Apr-2024 06:00Overcast Clouds19°C7 mph, SE100%10000m1016hPa42%
22-Apr-2024 09:00Overcast Clouds23°C4 mph, S100%10000m1016hPa36%
22-Apr-2024 12:00Overcast Clouds24°C2 mph, NW100%10000m1013hPa31%
22-Apr-2024 15:00Overcast Clouds24°C2 mph, S99%10000m1012hPa38%
22-Apr-2024 18:00Overcast Clouds19°C4 mph, E99%10000m1014hPa51%
22-Apr-2024 21:00Overcast Clouds17°C7 mph, S100%10000m1016hPa58%
23-Apr-2024 00:00Overcast Clouds16°C4 mph, S100%10000m1016hPa63%
23-Apr-2024 03:00Overcast Clouds15°C2 mph, SE99%10000m1016hPa67%
23-Apr-2024 06:00Overcast Clouds17°C2 mph, NE97%10000m1017hPa58%
23-Apr-2024 09:00Scattered Clouds23°C9 mph, NW50%10000m1016hPa32%
23-Apr-2024 12:00Broken Clouds26°C13 mph, NW57%10000m1013hPa20%
23-Apr-2024 15:00Broken Clouds23°C11 mph, NW81%10000m1013hPa21%
23-Apr-2024 18:00Overcast Clouds18°C7 mph, W90%10000m1015hPa27%
23-Apr-2024 21:00Overcast Clouds16°C2 mph, NW92%10000m1015hPa30%
24-Apr-2024 00:00Broken Clouds15°C4 mph, NW58%10000m1015hPa30%